Time;durP1;ratioP1;P1;durP2;ratioP2;P2;SDS_P1;SDS_P2;PMS_P1;PMS_P2;Temp;Humidity;BMP_temperature;BMP_pressure;BME280_temperature;BME280_humidity;BME280_pressure;Samples;Min_cycle;Max_cycle;Signal;HPM_P1;HPM_P2
2023/10/11 00:01:22;;;;;;;8.38;3.67;;;;;;;14.08;59.52;95679.88;5028402;28;20029;-77
2023/10/11 00:03:53;;;;;;;5.22;3.33;;;;;;;13.99;59.81;95677.00;5028512;28;20067;-77
2023/10/11 00:06:19;;;;;;;5.95;3.28;;;;;;;13.99;59.95;95679.75;5040817;28;20029;-77
2023/10/11 00:08:44;;;;;;;4.63;2.97;;;;;;;13.96;60.05;95683.44;5011951;28;20537;-77
2023/10/11 00:11:10;;;;;;;5.63;3.08;;;;;;;13.90;59.99;95671.38;5027548;28;20033;-77
2023/10/11 00:13:37;;;;;;;6.10;3.30;;;;;;;13.90;59.90;95676.91;5045179;28;20455;-77
2023/10/11 00:16:08;;;;;;;4.43;3.08;;;;;;;13.89;59.96;95670.59;5027356;28;20174;-76
2023/10/11 00:18:38;;;;;;;5.57;3.28;;;;;;;13.85;60.60;95674.69;5027119;28;20333;-75
2023/10/11 00:21:10;;;;;;;7.00;3.88;;;;;;;13.70;61.31;95671.53;5006957;28;20128;-76
2023/10/11 00:23:38;;;;;;;7.63;3.53;;;;;;;13.75;61.28;95674.53;5014884;28;20056;-75
2023/10/11 00:26:06;;;;;;;6.30;3.75;;;;;;;13.72;60.74;95671.91;5045425;28;20415;-76
2023/10/11 00:28:33;;;;;;;6.22;3.63;;;;;;;13.69;60.43;95675.53;5011143;28;20029;-76
2023/10/11 00:31:00;;;;;;;5.30;3.38;;;;;;;13.69;60.62;95672.75;5010695;28;20040;-76
2023/10/11 00:33:29;;;;;;;7.00;3.72;;;;;;;13.63;60.85;95669.00;5027248;28;20041;-76
2023/10/11 00:35:55;;;;;;;5.47;3.45;;;;;;;13.61;60.72;95668.69;5010862;28;20037;-76
2023/10/11 00:38:29;;;;;;;9.90;4.18;;;;;;;13.57;60.94;95671.53;5026705;28;20043;-76
2023/10/11 00:41:12;;;;;;;7.13;3.38;;;;;;;13.52;61.00;95669.31;5023649;28;20025;-76
2023/10/11 00:43:52;;;;;;;5.25;3.58;;;;;;;13.52;61.08;95670.06;5028489;28;20507;-76
2023/10/11 00:46:24;;;;;;;6.13;3.53;;;;;;;13.50;61.06;95663.44;5014584;28;20041;-76
2023/10/11 00:49:12;;;;;;;7.17;3.33;;;;;;;13.48;61.04;95661.13;5027690;28;20029;-76
2023/10/11 00:51:41;;;;;;;7.00;3.17;;;;;;;13.42;61.19;95653.81;5029985;28;20065;-76
2023/10/11 00:54:07;;;;;;;7.43;3.20;;;;;;;13.37;61.47;95657.13;5026624;28;20033;-76
2023/10/11 00:56:32;;;;;;;6.90;3.60;;;;;;;13.35;61.34;95662.28;5026849;28;20044;-76
2023/10/11 00:59:08;;;;;;;5.80;3.55;;;;;;;13.34;61.68;95661.53;5045281;28;20100;-77
2023/10/11 01:01:36;;;;;;;5.50;3.53;;;;;;;13.27;62.12;95670.00;5045105;28;20041;-76
2023/10/11 01:04:02;;;;;;;5.70;3.80;;;;;;;13.19;62.13;95666.66;5044628;28;20116;-77
2023/10/11 01:06:28;;;;;;;5.60;3.25;;;;;;;13.19;62.04;95666.66;5044557;28;20116;-76
2023/10/11 01:08:54;;;;;;;6.32;3.30;;;;;;;13.16;62.01;95672.25;5044984;28;20041;-77
2023/10/11 01:11:19;;;;;;;5.05;3.20;;;;;;;13.13;61.91;95671.16;5026660;28;20568;-76
2023/10/11 01:13:50;;;;;;;6.43;3.40;;;;;;;13.12;61.75;95674.34;5045064;28;20033;-76
2023/10/11 01:16:18;;;;;;;5.47;4.00;;;;;;;13.12;61.91;95683.38;5027942;28;20033;-76
2023/10/11 01:18:43;;;;;;;7.15;3.70;;;;;;;13.08;61.44;95679.19;5026904;28;20063;-76
2023/10/11 01:21:10;;;;;;;8.02;5.25;;;;;;;13.07;61.54;95677.63;5026930;28;20064;-76
2023/10/11 01:23:35;;;;;;;8.30;4.10;;;;;;;13.05;61.33;95682.81;5026965;28;20072;-76
2023/10/11 01:26:08;;;;;;;6.63;3.97;;;;;;;13.01;61.63;95683.66;5026963;28;20483;-76
2023/10/11 01:28:48;;;;;;;7.90;3.92;;;;;;;12.98;62.02;95698.34;5000141;28;20037;-76
2023/10/11 01:31:16;;;;;;;7.97;4.50;;;;;;;12.98;61.98;95692.06;5007948;28;20091;-76
2023/10/11 01:33:43;;;;;;;6.90;4.00;;;;;;;12.96;62.22;95689.75;5025775;28;20076;-76
2023/10/11 01:36:11;;;;;;;5.68;4.03;;;;;;;12.92;62.36;95683.53;5027039;28;20094;-76
2023/10/11 01:38:48;;;;;;;5.93;3.83;;;;;;;12.89;62.52;95689.91;5044168;28;20083;-76
2023/10/11 01:41:15;;;;;;;7.75;3.97;;;;;;;12.90;62.76;95691.47;5044938;28;20585;-76
2023/10/11 01:43:40;;;;;;;7.72;3.90;;;;;;;12.86;62.77;95693.53;5044266;28;20063;-76
2023/10/11 01:46:06;;;;;;;5.97;3.42;;;;;;;12.86;62.78;95699.06;5027717;28;20025;-76
2023/10/11 01:48:31;;;;;;;7.40;3.88;;;;;;;12.83;62.69;95704.66;5025899;28;20025;-76
2023/10/11 01:51:01;;;;;;;7.47;3.88;;;;;;;12.83;62.91;95716.47;5025868;28;20048;-76
2023/10/11 01:53:27;;;;;;;7.05;4.13;;;;;;;12.92;62.51;95707.59;5026911;28;20036;-76
2023/10/11 01:55:55;;;;;;;7.13;4.18;;;;;;;12.88;62.68;95704.13;5046998;28;20423;-76
2023/10/11 01:58:20;;;;;;;5.50;4.00;;;;;;;12.84;62.56;95709.75;5031080;28;20055;-76
2023/10/11 02:00:48;;;;;;;6.70;4.20;;;;;;;12.81;62.95;95709.84;5029631;28;20115;-76
2023/10/11 02:03:14;;;;;;;5.70;4.18;;;;;;;12.59;63.62;95704.06;5047754;28;20056;-76
2023/10/11 02:05:40;;;;;;;7.00;4.57;;;;;;;12.63;63.61;95704.78;5030119;28;20082;-76
2023/10/11 02:08:12;;;;;;;7.18;4.03;;;;;;;12.64;63.62;95698.03;5047904;28;20033;-76
2023/10/11 02:10:38;;;;;;;6.40;4.25;;;;;;;12.74;63.41;95710.81;5030684;28;20036;-76
2023/10/11 02:13:06;;;;;;;6.40;3.90;;;;;;;12.66;63.54;95717.69;5047484;28;20025;-76
2023/10/11 02:15:34;;;;;;;6.32;3.88;;;;;;;12.64;63.58;95717.34;5030549;28;20033;-76
2023/10/11 02:18:07;;;;;;;6.20;3.60;;;;;;;12.68;63.25;95721.59;5029179;28;20101;-76
2023/10/11 02:20:32;;;;;;;6.03;3.85;;;;;;;12.66;63.02;95721.22;5030329;28;20626;-76
2023/10/11 02:22:59;;;;;;;9.15;4.25;;;;;;;12.64;62.98;95718.13;4995516;28;20524;-77
2023/10/11 02:25:25;;;;;;;9.15;4.10;;;;;;;12.66;62.85;95726.72;5029315;28;20040;-76
2023/10/11 02:27:51;;;;;;;5.72;4.28;;;;;;;12.67;62.76;95725.56;5012783;28;20028;-76
2023/10/11 02:30:21;;;;;;;6.97;4.43;;;;;;;12.59;62.85;95726.91;5047466;28;20029;-76
2023/10/11 02:32:48;;;;;;;7.60;4.47;;;;;;;12.65;62.61;95727.94;5029425;28;20068;-76
2023/10/11 02:35:14;;;;;;;7.45;5.20;;;;;;;12.60;62.85;95738.72;5012566;28;20087;-76
2023/10/11 02:37:40;;;;;;;9.00;4.22;;;;;;;12.61;62.89;95743.03;5029287;28;20025;-76
2023/10/11 02:40:08;;;;;;;7.38;4.38;;;;;;;12.56;62.71;95735.25;5029642;28;20029;-76
2023/10/11 02:42:36;;;;;;;9.15;4.45;;;;;;;12.59;62.63;95743.47;5028948;28;20040;-77
2023/10/11 02:45:06;;;;;;;6.13;4.38;;;;;;;12.62;62.66;95748.13;5029655;28;20036;-76
2023/10/11 02:47:35;;;;;;;9.35;5.07;;;;;;;12.58;62.72;95750.19;5012575;28;20033;-76
2023/10/11 02:50:05;;;;;;;8.40;4.40;;;;;;;12.56;62.75;95755.38;5029218;28;20134;-76
2023/10/11 02:52:35;;;;;;;7.15;5.13;;;;;;;12.55;62.80;95753.03;5029194;28;20037;-76
2023/10/11 02:55:20;;;;;;;5.65;4.47;;;;;;;12.53;62.70;95758.19;5029524;28;20449;-76
2023/10/11 02:57:46;;;;;;;9.55;5.28;;;;;;;12.51;62.86;95757.88;5014807;28;20499;-76
2023/10/11 03:00:21;;;;;;;7.10;5.00;;;;;;;12.48;62.75;95745.69;5028882;28;20459;-77
2023/10/11 03:02:54;;;;;;;10.88;4.60;;;;;;;12.47;62.68;95750.44;5009141;28;20475;-76
2023/10/11 03:05:27;;;;;;;9.00;4.47;;;;;;;12.42;62.86;95759.22;5027592;28;20024;-76
2023/10/11 03:07:55;;;;;;;8.70;4.82;;;;;;;12.44;62.40;95758.78;5011205;28;20112;-77
2023/10/11 03:10:22;;;;;;;11.15;5.18;;;;;;;12.35;62.73;95759.38;5012432;28;20029;-76
2023/10/11 03:12:51;;;;;;;6.90;4.80;;;;;;;12.38;62.53;95764.03;5028851;28;20498;-76
2023/10/11 03:15:19;;;;;;;9.23;5.70;;;;;;;12.33;62.69;95767.31;5028874;28;20057;-77
2023/10/11 03:17:52;;;;;;;9.32;5.25;;;;;;;12.28;62.82;95759.56;5028840;28;20068;-76
2023/10/11 03:20:35;;;;;;;9.00;5.13;;;;;;;12.28;62.84;95770.56;5012252;28;20029;-76
2023/10/11 03:23:04;;;;;;;8.57;5.00;;;;;;;12.25;62.80;95768.66;5030597;28;20068;-76
2023/10/11 03:25:37;;;;;;;6.50;4.88;;;;;;;12.22;62.71;95775.06;5004810;28;20056;-76
2023/10/11 03:28:03;;;;;;;8.75;4.97;;;;;;;12.15;62.92;95767.69;5029252;28;20103;-76
2023/10/11 03:30:35;;;;;;;9.20;5.45;;;;;;;12.06;62.89;95759.25;5028171;28;20105;-76
2023/10/11 03:33:02;;;;;;;7.90;5.70;;;;;;;12.14;62.93;95776.38;5012237;28;20432;-76
2023/10/11 03:35:30;;;;;;;10.13;5.50;;;;;;;12.10;62.93;95782.00;5028552;28;20040;-76
2023/10/11 03:37:59;;;;;;;8.40;5.65;;;;;;;12.08;63.15;95778.88;5028513;28;20029;-76
2023/10/11 03:40:34;;;;;;;9.90;5.78;;;;;;;12.07;63.20;95782.06;5046552;28;20033;-75
2023/10/11 03:43:11;;;;;;;9.68;5.95;;;;;;;12.03;63.20;95779.38;5028896;28;20032;-76
2023/10/11 03:45:39;;;;;;;10.50;5.15;;;;;;;12.04;63.09;95785.66;5029594;28;20086;-76
2023/10/11 03:48:09;;;;;;;8.15;4.93;;;;;;;12.03;63.03;95784.88;5028301;28;20499;-76
2023/10/11 03:50:36;;;;;;;7.55;5.05;;;;;;;12.04;62.91;95789.19;5028880;28;20055;-77
2023/10/11 03:53:11;;;;;;;8.93;4.97;;;;;;;12.07;62.89;95795.84;5027301;28;20093;-78
2023/10/11 03:55:46;;;;;;;9.25;5.40;;;;;;;12.05;63.10;95787.22;5007261;28;20404;-78
2023/10/11 03:58:29;;;;;;;12.23;5.35;;;;;;;12.00;63.20;95785.75;5005852;28;20032;-78
2023/10/11 04:01:00;;;;;;;10.10;6.05;;;;;;;12.04;63.23;95799.44;5010310;28;20038;-77
2023/10/11 04:03:26;;;;;;;7.10;5.60;;;;;;;12.02;63.18;95799.88;5010387;28;20029;-77
2023/10/11 04:05:51;;;;;;;9.98;5.25;;;;;;;12.04;63.32;95802.97;5027351;28;20114;-78
2023/10/11 04:08:24;;;;;;;9.38;5.13;;;;;;;12.07;63.29;95812.38;5027914;28;20033;-77
2023/10/11 04:10:53;;;;;;;9.20;4.95;;;;;;;12.06;63.09;95797.03;5045213;28;20032;-75
2023/10/11 04:13:25;;;;;;;8.20;5.82;;;;;;;12.09;63.34;95802.47;5027344;28;20029;-78
2023/10/11 04:15:53;;;;;;;7.50;4.97;;;;;;;12.17;63.02;95805.88;5029162;28;20036;-78
2023/10/11 04:21:03;;;;;;;9.75;6.00;;;;;;;12.10;63.29;95815.06;5029815;28;20048;-77
2023/10/11 04:23:28;;;;;;;9.30;5.05;;;;;;;12.12;63.24;95806.38;5028023;28;20116;-77
2023/10/11 04:25:55;;;;;;;7.88;4.85;;;;;;;12.12;63.11;95796.13;5027625;28;20484;-76
2023/10/11 04:28:23;;;;;;;10.05;4.93;;;;;;;12.15;63.20;95808.25;5026566;28;20427;-76
2023/10/11 04:30:53;;;;;;;8.82;5.20;;;;;;;12.15;63.27;95805.50;5044804;28;20033;-78
2023/10/11 04:33:21;;;;;;;11.98;5.18;;;;;;;12.17;63.30;95808.63;5007714;28;20107;-78
2023/10/11 04:35:55;;;;;;;8.23;4.93;;;;;;;12.22;63.19;95817.16;5007992;28;20033;-77
2023/10/11 04:38:21;;;;;;;8.20;4.47;;;;;;;12.29;63.00;95813.47;5011632;28;20036;-76
2023/10/11 04:40:51;;;;;;;11.23;5.20;;;;;;;12.29;62.85;95810.72;5026896;28;20017;-76
2023/10/11 04:43:20;;;;;;;6.70;5.20;;;;;;;12.29;62.90;95810.72;5027521;28;20025;-76
2023/10/11 04:45:47;;;;;;;8.18;5.00;;;;;;;12.35;62.69;95817.28;5027976;28;20033;-76
2023/10/11 04:48:15;;;;;;;8.50;4.97;;;;;;;12.39;62.53;95822.75;5026773;28;20025;-76
2023/10/11 04:50:47;;;;;;;8.57;5.03;;;;;;;12.40;62.27;95824.28;5027736;28;20025;-77
2023/10/11 04:53:17;;;;;;;7.60;4.93;;;;;;;12.43;61.87;95826.16;5026978;28;20124;-76
2023/10/11 04:55:58;;;;;;;12.45;4.70;;;;;;;12.34;61.64;95810.22;5027560;28;20119;-76
2023/10/11 04:58:49;;;;;;;9.93;5.95;;;;;;;12.48;61.69;95828.44;5028416;28;20044;-77
2023/10/11 05:01:22;;;;;;;10.30;5.35;;;;;;;12.43;61.43;95823.41;5012987;28;20044;-76
2023/10/11 05:03:53;;;;;;;8.30;4.97;;;;;;;12.48;61.41;95831.97;5045282;28;20063;-73
2023/10/11 05:06:30;;;;;;;11.25;5.13;;;;;;;12.57;61.34;95830.63;5011076;28;20124;-75
2023/10/11 05:09:04;;;;;;;7.18;5.20;;;;;;;12.57;61.40;95836.13;5028350;28;20025;-78
2023/10/11 05:11:36;;;;;;;8.82;5.45;;;;;;;12.60;61.28;95844.31;5044934;28;20032;-77
2023/10/11 05:14:10;;;;;;;11.63;5.75;;;;;;;12.65;61.30;95843.03;5027951;28;20020;-78
2023/10/11 05:16:41;;;;;;;11.65;6.45;;;;;;;12.69;61.24;95849.25;5027286;28;20029;-75
2023/10/11 05:19:07;;;;;;;9.05;4.95;;;;;;;12.75;60.95;95853.06;5027438;28;20106;-75
2023/10/11 05:21:38;;;;;;;10.70;5.00;;;;;;;12.78;60.95;95846.66;5044416;28;20077;-76
2023/10/11 05:27:11;;;;;;;8.25;5.18;;;;;;;12.91;60.60;95855.06;4955674;28;20122;-75
2023/10/11 05:30:06;;;;;;;9.68;4.53;;;;;;;12.95;60.42;95852.97;5045371;28;20064;-76
2023/10/11 05:32:27;;;;;;;8.68;4.55;;;;;;;12.97;60.11;95859.63;5033028;28;20025;-75
2023/10/11 05:51:20;;;;;;;9.70;5.35;;;;;;;13.43;59.01;95879.84;5049017;28;20508;-77
2023/10/11 05:53:49;;;;;;;13.38;5.88;;;;;;;13.49;59.05;95880.88;5013152;28;20040;-77
2023/10/11 05:56:20;;;;;;;16.20;6.38;;;;;;;13.57;58.97;95884.25;5031253;28;20539;-76
2023/10/11 05:58:50;;;;;;;16.92;7.20;;;;;;;13.62;58.78;95886.47;5030938;28;20107;-76
2023/10/11 06:01:23;;;;;;;13.43;5.90;;;;;;;13.60;58.61;95886.16;5030455;28;20032;-77
2023/10/11 06:03:55;;;;;;;7.72;5.68;;;;;;;13.65;58.63;95891.16;5029177;28;20408;-77
2023/10/11 06:06:23;;;;;;;12.23;5.53;;;;;;;13.66;58.47;95895.47;5014038;28;20032;-77
2023/10/11 06:08:53;;;;;;;8.75;5.43;;;;;;;13.71;58.36;95894.94;5029615;28;20043;-76
2023/10/11 06:11:23;;;;;;;7.35;5.75;;;;;;;13.76;58.21;95902.72;5030245;28;20028;-77
2023/10/11 06:13:52;;;;;;;9.25;5.68;;;;;;;13.77;57.88;95906.25;5030019;28;20033;-77
2023/10/11 06:16:19;;;;;;;11.70;5.72;;;;;;;13.83;57.81;95896.22;5030472;28;20116;-77
2023/10/11 06:18:57;;;;;;;12.30;6.93;;;;;;;13.75;57.95;95916.94;5029788;28;20039;-75
2023/10/11 06:21:33;;;;;;;9.88;5.22;;;;;;;13.74;58.25;95915.38;5017211;28;20032;-76
2023/10/11 06:23:59;;;;;;;14.32;6.65;;;;;;;13.75;58.28;95911.41;5029817;28;20067;-76
2023/10/11 06:26:28;;;;;;;9.73;5.53;;;;;;;13.80;58.31;95922.72;5029756;28;20079;-75
2023/10/11 06:29:03;;;;;;;16.15;6.60;;;;;;;13.86;58.34;95911.91;5046450;28;20032;-75
2023/10/11 06:31:39;;;;;;;10.13;5.70;;;;;;;13.86;58.06;95924.97;5029488;28;20107;-75
2023/10/11 06:34:15;;;;;;;13.93;6.15;;;;;;;13.87;57.92;95924.50;5013211;28;20041;-76
2023/10/11 06:36:50;;;;;;;9.23;5.20;;;;;;;13.96;57.29;95924.69;5047355;28;20530;-76
2023/10/11 06:42:21;;;;;;;10.40;5.90;;;;;;;14.01;57.04;95923.38;5030924;28;20036;-77
2023/10/11 06:44:57;;;;;;;8.50;5.60;;;;;;;14.08;56.80;95923.97;5031641;28;20040;-78
2023/10/11 06:47:24;;;;;;;9.75;5.57;;;;;;;14.14;56.63;95932.50;5029775;28;20021;-75
2023/10/11 06:49:54;;;;;;;11.20;5.07;;;;;;;14.20;56.62;95932.75;5029445;28;20032;-75
2023/10/11 06:52:25;;;;;;;15.40;6.50;;;;;;;14.30;55.95;95932.47;5029608;28;20044;-79
2023/10/11 06:57:39;;;;;;;7.95;4.28;;;;;;;14.46;55.01;95934.41;5032273;28;20044;-82
2023/10/11 07:00:23;;;;;;;6.35;3.80;;;;;;;14.51;54.24;95925.59;5013030;28;20518;-76
2023/10/11 07:02:52;;;;;;;10.15;4.38;;;;;;;14.59;54.00;95923.38;5013649;28;20055;-76
2023/10/11 07:05:19;;;;;;;6.95;4.65;;;;;;;14.66;54.01;95930.72;5030003;28;20029;-77
2023/10/11 07:07:47;;;;;;;8.85;4.55;;;;;;;14.76;53.21;95924.88;4993074;28;20365;-74
2023/10/11 07:13:06;;;;;;;8.05;3.42;;;;;;;14.89;52.67;95911.03;5011725;28;20061;-75
2023/10/11 07:15:37;;;;;;;7.68;3.67;;;;;;;15.08;51.80;95912.03;5010816;28;20040;-75
2023/10/11 07:18:21;;;;;;;7.47;3.80;;;;;;;15.14;51.94;95911.06;5031480;28;20021;-76
2023/10/11 07:20:49;;;;;;;7.00;3.40;;;;;;;15.24;50.97;95900.06;5029881;28;20025;-76
2023/10/11 07:23:20;;;;;;;7.25;4.15;;;;;;;15.33;50.75;95905.72;5047090;28;20044;-75
2023/10/11 07:25:59;;;;;;;7.97;3.85;;;;;;;15.41;50.45;95905.03;5029585;28;20083;-77
2023/10/11 07:28:50;;;;;;;6.05;3.05;;;;;;;15.43;50.96;95904.63;5013747;28;20411;-75
2023/10/11 07:31:16;;;;;;;6.05;3.33;;;;;;;15.46;50.51;95895.41;5032040;28;20025;-75
2023/10/11 07:33:42;;;;;;;9.13;4.40;;;;;;;15.51;50.52;95892.06;5012376;28;20039;-75
2023/10/11 07:36:11;;;;;;;7.22;3.47;;;;;;;15.65;50.66;95911.03;5028521;28;20031;-75
2023/10/11 07:38:43;;;;;;;6.22;3.47;;;;;;;15.81;50.31;95917.66;5012985;28;20102;-76
2023/10/11 07:41:17;;;;;;;6.65;3.60;;;;;;;15.96;50.21;95915.19;5046328;28;20028;-76
2023/10/11 07:43:45;;;;;;;7.57;3.80;;;;;;;16.15;49.78;95928.75;5029675;28;20029;-76
2023/10/11 07:46:11;;;;;;;8.18;3.50;;;;;;;16.37;49.09;95928.00;5028427;28;20029;-76
2023/10/11 07:48:39;;;;;;;11.40;3.38;;;;;;;16.53;48.76;95919.47;5028739;28;20321;-76
2023/10/11 07:51:09;;;;;;;7.07;3.88;;;;;;;16.72;48.05;95918.41;5028076;28;20033;-76
2023/10/11 07:53:44;;;;;;;9.13;4.63;;;;;;;16.97;47.66;95919.44;5012203;28;20059;-77
2023/10/11 07:56:09;;;;;;;6.70;4.45;;;;;;;17.17;47.07;95919.88;5028463;28;20077;-77
2023/10/11 07:58:45;;;;;;;10.27;4.43;;;;;;;17.39;46.64;95922.59;5046315;28;20108;-77
2023/10/11 08:01:30;;;;;;;12.10;4.20;;;;;;;17.75;45.46;95921.94;5025358;28;20072;-77
2023/10/11 08:03:57;;;;;;;12.20;4.22;;;;;;;18.10;45.01;95918.13;5025823;28;20119;-77
2023/10/11 08:06:25;;;;;;;8.88;4.30;;;;;;;18.44;44.22;95917.03;5008725;28;20021;-77
2023/10/11 08:08:58;;;;;;;11.55;5.18;;;;;;;18.84;43.45;95925.97;5008850;28;20029;-77
2023/10/11 08:11:24;;;;;;;;;;;;;;;19.33;41.68;95924.91;4992917;28;20037;-77
2023/10/11 08:13:50;;;;;;;8.15;3.95;;;;;;;19.72;41.03;95929.88;5002053;28;19923;-78
2023/10/11 08:16:18;;;;;;;8.25;3.70;;;;;;;20.12;40.28;95930.22;5045616;28;20068;-77
2023/10/11 08:18:46;;;;;;;6.13;3.88;;;;;;;20.69;39.03;95937.72;5045949;28;20024;-77
2023/10/11 08:21:11;;;;;;;8.85;3.63;;;;;;;21.28;38.07;95934.94;5027583;28;20112;-75
2023/10/11 08:23:42;;;;;;;7.93;4.10;;;;;;;21.79;37.51;95935.72;5045905;28;20039;-75
2023/10/11 08:26:14;;;;;;;8.10;4.15;;;;;;;21.82;36.63;95938.31;5045911;28;20024;-78
2023/10/11 08:28:47;;;;;;;9.07;3.83;;;;;;;21.93;36.75;95932.88;5027932;28;20033;-78
2023/10/11 08:31:35;;;;;;;7.35;4.53;;;;;;;22.08;35.85;95937.66;5045806;28;20086;-85
2023/10/11 08:34:06;;;;;;;9.00;4.40;;;;;;;22.33;35.28;95925.78;5012328;28;20396;-76
2023/10/11 08:36:33;;;;;;;8.30;4.25;;;;;;;22.70;34.47;95925.94;5028087;28;20029;-76
2023/10/11 08:39:03;;;;;;;6.40;3.78;;;;;;;22.78;34.39;95920.69;5027661;28;20029;-75
2023/10/11 08:41:30;;;;;;;7.28;3.80;;;;;;;23.23;33.76;95932.38;5011287;28;20114;-75
2023/10/11 08:43:59;;;;;;;6.43;3.70;;;;;;;23.57;33.43;95922.19;5002443;28;20033;-89
2023/10/11 08:46:28;;;;;;;6.53;3.50;;;;;;;24.04;32.54;95929.13;4992615;28;20540;-76
2023/10/11 08:48:54;;;;;;;5.05;3.63;;;;;;;24.55;31.80;95929.38;5011988;28;20128;-77
2023/10/11 08:51:22;;;;;;;7.93;3.60;;;;;;;25.13;30.79;95924.94;5010881;28;20280;-78
2023/10/11 08:53:54;;;;;;;6.45;3.67;;;;;;;25.96;29.43;95925.41;5009465;28;20033;-81
2023/10/11 08:56:22;;;;;;;9.27;3.70;;;;;;;26.66;28.61;95929.78;5007605;28;20149;-77
2023/10/11 08:58:51;;;;;;;6.65;3.60;;;;;;;27.57;27.49;95925.09;5022485;28;20052;-77
2023/10/11 09:01:17;;;;;;;7.70;3.85;;;;;;;28.60;25.47;95924.31;5011211;28;20025;-76
2023/10/11 09:03:43;;;;;;;7.95;3.80;;;;;;;29.46;24.91;95933.91;5010979;28;20551;-77
2023/10/11 09:06:22;;;;;;;6.95;3.33;;;;;;;30.15;23.45;95939.44;5031387;28;20486;-77
2023/10/11 09:08:47;;;;;;;6.10;2.75;;;;;;;30.65;22.97;95922.72;5049482;28;20035;-76
2023/10/11 09:11:31;;;;;;;7.72;3.17;;;;;;;31.43;21.90;95920.28;5015120;28;20021;-77
2023/10/11 09:14:13;;;;;;;6.85;3.60;;;;;;;32.29;20.78;95926.84;5034290;28;20044;-77
2023/10/11 09:16:42;;;;;;;7.63;3.50;;;;;;;32.65;20.63;95929.75;5031448;28;20028;-77
2023/10/11 09:19:11;;;;;;;5.35;3.05;;;;;;;33.22;19.68;95926.75;5031402;28;20279;-75
2023/10/11 09:21:37;;;;;;;5.00;3.13;;;;;;;33.66;19.58;95928.75;5031772;28;20094;-76
2023/10/11 09:24:22;;;;;;;6.05;3.30;;;;;;;34.40;19.13;95930.63;5031851;28;20053;-78
2023/10/11 09:27:09;;;;;;;3.40;2.90;;;;;;;34.74;18.12;95915.91;5031569;28;20037;-78
2023/10/11 09:29:38;;;;;;;4.85;2.67;;;;;;;35.11;17.78;95920.72;5016891;28;20025;-78
2023/10/11 09:32:05;;;;;;;7.55;3.20;;;;;;;35.37;16.95;95921.53;5031457;28;20430;-78
2023/10/11 09:34:30;;;;;;;5.60;2.97;;;;;;;35.93;16.83;95913.56;5030876;28;20566;-78
2023/10/11 09:37:00;;;;;;;4.03;2.97;;;;;;;36.43;16.90;95907.78;5031343;28;20150;-79
2023/10/11 09:39:29;;;;;;;5.93;3.17;;;;;;;36.85;16.06;95904.81;5031575;28;20028;-78
2023/10/11 09:42:02;;;;;;;4.32;2.90;;;;;;;37.07;15.90;95911.63;5014861;28;20029;-78
2023/10/11 09:44:39;;;;;;;5.88;3.35;;;;;;;37.44;15.98;95903.88;5014541;28;20060;-77
2023/10/11 09:47:07;;;;;;;6.13;3.33;;;;;;;37.83;15.34;95897.56;5031799;28;20074;-79
2023/10/11 09:49:41;;;;;;;6.20;3.00;;;;;;;37.80;14.99;95902.38;5014529;28;20052;-78
2023/10/11 09:52:08;;;;;;;3.65;2.60;;;;;;;38.20;15.24;95904.03;5014427;28;20037;-76
2023/10/11 09:54:37;;;;;;;5.63;2.65;;;;;;;38.59;14.46;95901.97;5047529;28;20126;-79
2023/10/11 09:57:13;;;;;;;6.78;3.15;;;;;;;38.77;14.25;95897.63;5044695;28;20122;-82
2023/10/11 09:59:47;;;;;;;4.97;2.92;;;;;;;39.19;14.06;95899.25;5026139;28;20041;-79
2023/10/11 10:02:29;;;;;;;6.20;2.85;;;;;;;39.51;14.04;95889.31;5047471;28;20496;-77
2023/10/11 10:04:55;;;;;;;3.70;2.78;;;;;;;40.12;13.82;95898.66;5013744;28;20036;-79
2023/10/11 10:07:25;;;;;;;3.80;2.47;;;;;;;40.63;13.30;95884.81;5010450;28;20033;-79
2023/10/11 10:10:01;;;;;;;7.78;3.28;;;;;;;40.92;12.91;95883.84;5011490;28;20417;-80
2023/10/11 10:12:33;;;;;;;5.20;2.55;;;;;;;41.45;12.44;95879.38;5010558;28;20112;-79
2023/10/11 10:15:14;;;;;;;3.80;2.47;;;;;;;41.56;12.28;95881.50;5036643;28;20033;-81
2023/10/11 10:18:05;;;;;;;3.67;2.50;;;;;;;41.62;11.91;95876.13;5034943;28;20123;-83
2023/10/11 10:20:33;;;;;;;7.50;2.42;;;;;;;41.75;11.91;95871.91;5037126;28;20122;-76
2023/10/11 10:23:13;;;;;;;5.40;2.50;;;;;;;42.24;11.89;95868.38;5048083;28;20112;-76
2023/10/11 10:25:40;;;;;;;3.17;2.80;;;;;;;42.03;11.67;95864.22;5029114;28;20036;-77
2023/10/11 10:28:34;;;;;;;7.78;2.85;;;;;;;42.15;11.53;95859.19;5030264;28;20047;-77
2023/10/11 10:31:19;;;;;;;5.68;2.88;;;;;;;42.33;11.67;95865.34;5028941;28;20021;-77
2023/10/11 10:34:08;;;;;;;8.13;2.72;;;;;;;41.93;11.66;95849.19;5012153;28;20041;-77
2023/10/11 10:36:37;;;;;;;12.48;2.85;;;;;;;41.99;11.95;95851.69;5029477;28;20393;-80
2023/10/11 10:41:39;;;;;;;4.90;2.70;;;;;;;42.79;11.31;95843.47;5047362;28;20053;-78
2023/10/11 10:44:12;;;;;;;6.10;2.88;;;;;;;43.26;11.21;95845.38;5013215;28;20033;-80
2023/10/11 10:46:59;;;;;;;6.20;2.42;;;;;;;43.49;10.91;95839.47;5013065;28;20059;-80
2023/10/11 10:49:47;;;;;;;4.32;2.60;;;;;;;43.71;10.49;95834.13;5014891;28;20096;-82
2023/10/11 10:52:29;;;;;;;5.38;2.40;;;;;;;43.29;10.91;95824.59;5013582;28;20643;-81
2023/10/11 10:54:55;;;;;;;4.35;2.65;;;;;;;43.61;10.68;95819.13;5030193;28;20487;-81
2023/10/11 10:57:27;;;;;;;3.95;2.10;;;;;;;43.47;10.35;95833.53;5029592;28;20037;-81
2023/10/11 10:59:54;;;;;;;6.57;2.30;;;;;;;43.95;10.60;95829.66;5029978;28;20479;-81
2023/10/11 11:02:20;;;;;;;5.35;2.80;;;;;;;44.22;10.36;95825.28;5013282;28;20464;-80
2023/10/11 11:04:46;;;;;;;4.97;2.10;;;;;;;44.22;9.81;95828.91;5013374;28;20029;-79
2023/10/11 11:07:22;;;;;;;3.22;1.90;;;;;;;44.40;9.88;95822.56;5028915;28;20083;-81
2023/10/11 11:09:50;;;;;;;3.40;2.10;;;;;;;44.77;9.65;95813.53;5047296;28;20037;-80
2023/10/11 11:12:17;;;;;;;4.35;1.73;;;;;;;45.03;9.36;95814.88;5013006;28;20025;-80
2023/10/11 11:14:55;;;;;;;3.92;2.20;;;;;;;44.32;9.79;95813.44;5047147;28;20468;-79
2023/10/11 11:17:23;;;;;;;7.97;2.38;;;;;;;44.50;9.69;95818.00;5029614;28;20495;-81
2023/10/11 11:20:15;;;;;;;6.20;2.10;;;;;;;44.71;9.29;95813.25;5029517;28;20017;-80
2023/10/11 11:22:41;;;;;;;5.00;2.45;;;;;;;44.37;9.74;95809.34;5029870;28;20056;-80
2023/10/11 11:25:34;;;;;;;3.58;1.80;;;;;;;43.60;9.76;95812.56;5012828;28;20659;-79
2023/10/11 11:28:17;;;;;;;2.92;1.80;;;;;;;41.43;11.34;95803.50;5015061;28;20029;-82
2023/10/11 11:31:44;;;;;;;5.95;2.70;;;;;;;39.20;12.75;95800.16;5029828;28;20407;-79
2023/10/11 11:34:08;;;;;;;3.40;2.70;;;;;;;38.41;13.97;95797.22;5026478;28;20688;-78
2023/10/11 11:36:40;;;;;;;5.53;1.83;;;;;;;37.57;14.74;95788.03;5033002;28;20068;-78
2023/10/11 11:39:26;;;;;;;3.78;1.88;;;;;;;36.71;14.97;95786.22;5017117;28;20029;-78
2023/10/11 11:41:58;;;;;;;7.55;3.30;;;;;;;35.86;15.51;95777.81;5046896;28;20032;-78
2023/10/11 11:44:24;;;;;;;3.17;2.28;;;;;;;35.02;16.12;95784.22;5012949;28;20178;-77
2023/10/11 11:46:54;;;;;;;3.33;1.83;;;;;;;34.14;16.82;95780.63;5028411;28;20518;-78
2023/10/11 11:49:21;;;;;;;3.97;1.92;;;;;;;33.25;18.34;95774.63;5045556;28;20028;-78
2023/10/11 11:51:51;;;;;;;5.57;2.50;;;;;;;32.76;18.99;95766.41;5025953;28;20078;-82
2023/10/11 11:54:21;;;;;;;4.90;2.33;;;;;;;32.37;19.24;95771.22;5026432;28;20116;-79
2023/10/11 11:56:47;;;;;;;5.50;2.92;;;;;;;31.85;19.69;95783.84;5011154;28;20051;-76
2023/10/11 11:59:18;;;;;;;7.65;2.70;;;;;;;31.16;20.31;95777.59;5027791;28;20049;-76
2023/10/11 12:01:52;;;;;;;4.85;2.47;;;;;;;30.70;20.45;95768.66;5011435;28;20025;-78
2023/10/11 12:04:29;;;;;;;7.57;3.22;;;;;;;30.45;21.14;95768.16;5012708;28;20036;-79
2023/10/11 12:06:57;;;;;;;4.75;2.60;;;;;;;30.05;22.30;95768.25;5046326;28;20029;-81
2023/10/11 12:09:24;;;;;;;4.05;2.28;;;;;;;29.48;21.73;95750.06;5045520;28;20040;-84
2023/10/11 12:11:50;;;;;;;7.78;2.50;;;;;;;29.00;22.44;95760.41;5046037;28;20571;-80
2023/10/11 12:14:16;;;;;;;5.10;2.25;;;;;;;28.61;23.67;95769.50;5028568;28;20108;-80
2023/10/11 12:16:42;;;;;;;3.25;2.60;;;;;;;28.44;24.00;95755.59;5028723;28;20040;-79
2023/10/11 12:19:12;;;;;;;4.38;2.53;;;;;;;28.35;24.04;95750.38;5011674;28;20419;-80
2023/10/11 12:21:38;;;;;;;9.95;2.50;;;;;;;28.22;24.17;95763.09;5012226;28;20406;-84
2023/10/11 12:24:11;;;;;;;4.30;2.60;;;;;;;28.07;24.16;95754.31;5028192;28;20029;-80